29/01/2020 - Golden 1 Center, Sacramento, CA. Temporada Regular

Sacramento Kings - 100

Oklahoma City Thunder - 120

  • Árbitros: Tom Washington,Derrick Collins,Mousa Dagher
  • Asistencia: 16935 espectadores
  • Duración del partido: 2:09 horas
  • Número de empates durante el partido: 2
  • Cambios de líder: 0 veces

Tabla estadísticas

Oklahoma City Thunder - 120
Jugador Min TC T3 TL +/- rebO rebD reb asis fp rob per tap tr Val ptos
Shai Gilgeous-Alexander 38:36 6/13 3/5 2/3 25 0 7 7 7 2 1 2 2 0 24 17
Dennis Schroder 30:22 8/13 3/5 5/5 15 0 4 4 9 3 1 2 0 0 31 24
Abdel Nader 2:20 0/0 0/0 0/0 -4 0 0 0 0 1 0 0 0 0 0 0
Danilo Gallinari 29:03 7/13 4/9 1/2 16 1 3 4 4 0 0 2 0 0 18 19
Luguentz Dort 26:31 8/12 5/6 2/2 6 1 1 2 0 3 1 2 1 0 21 23
Chris Paul 26:19 3/12 0/4 3/4 17 0 7 7 10 4 1 2 0 0 15 9
Steven Adams 25:54 2/5 0/0 4/4 14 5 3 8 1 2 1 0 1 0 16 8
Nerlens Noel 20:35 6/7 0/0 0/0 12 3 2 5 0 1 4 2 1 0 19 12
Mike Muscala 1:31 0/0 0/0 0/0 -6 0 0 0 0 0 0 0 0 0 0 0
Deonte Burton 1:31 0/1 0/0 0/0 -6 0 0 0 0 0 0 0 0 0 -1 0
Isaiah Roby 1:31 0/1 0/0 0/0 -6 0 0 0 0 0 0 0 0 0 -1 0
Hamidou Diallo 18:20 1/3 0/1 0/0 7 0 3 3 0 1 0 1 0 0 2 2
Darius Bazley 17:26 3/8 0/4 0/0 10 0 5 5 1 0 0 0 0 0 7 6
Total / / / 100 151
Sacramento Kings - 100
Jugador Min TC T3 TL +/- rebO rebD reb asis fp rob per tap tr Val ptos
Yogi Ferrell 5:35 2/4 1/3 0/0 7 0 1 1 1 1 0 0 0 0 5 5
Justin James 3:53 1/2 0/0 2/2 5 2 0 2 1 0 0 0 0 0 6 4
De'Aaron Fox 27:34 9/15 0/3 1/3 -12 0 1 1 5 1 2 1 0 0 18 19
Bogdan Bogdanovic 27:19 10/19 3/10 0/1 -12 1 4 5 2 2 1 0 0 0 21 23
Harrison Barnes 26:27 3/6 0/1 2/3 -14 1 2 3 1 1 0 2 0 0 6 8
Nemanja Bjelica 24:03 0/5 0/2 0/0 -5 0 0 0 5 4 0 0 0 0 0 0
Dewayne Dedmon 23:28 3/7 0/1 0/0 -15 1 6 7 0 4 0 0 0 0 9 6
Buddy Hield 23:20 5/12 3/10 0/0 -20 1 1 2 2 1 0 2 0 0 8 13
Anthony Tolliver 22:34 1/4 1/4 0/0 -4 2 4 6 1 3 0 2 0 0 5 3
Cory Joseph 20:26 2/5 1/3 0/0 -8 2 1 3 3 1 1 3 0 0 6 5
Kent Bazemore 18:04 1/5 0/2 2/2 -21 0 3 3 0 3 1 2 0 0 2 4
Harry Giles 17:17 5/7 0/0 0/0 -1 1 5 6 1 1 1 1 2 0 17 10
Total / / / -100 103



temporada 201920

Calendario por equipos

Selecciona equipo NBA y tipo partidos

enfrentamientos equipos

Selecciona enfrentamiento equipos NBA